createdAt,value
2023-04-04T00:00:55.676Z,2.07
2023-04-04T00:03:59.117Z,2.08
2023-04-04T00:07:03.188Z,2.15
2023-04-04T00:10:06.379Z,2.14
2023-04-04T00:13:09.598Z,2.04
2023-04-04T00:16:12.259Z,2.05
2023-04-04T00:19:18.117Z,2.03
2023-04-04T00:22:22.204Z,2.01
2023-04-04T00:25:25.206Z,1.89
2023-04-04T00:28:27.800Z,1.83
2023-04-04T00:31:30.499Z,1.81
2023-04-04T00:34:33.172Z,1.87
2023-04-04T00:37:37.161Z,1.82
2023-04-04T00:40:43.331Z,1.84
2023-04-04T00:43:46.280Z,1.84
2023-04-04T00:46:48.909Z,1.83
2023-04-04T00:49:52.418Z,1.79
2023-04-04T00:52:56.921Z,1.74
2023-04-04T00:55:59.724Z,1.91
2023-04-04T00:59:02.401Z,1.93
2023-04-04T01:02:05.193Z,1.79
2023-04-04T01:05:08.907Z,1.76
2023-04-04T01:08:13.061Z,1.79
2023-04-04T01:11:16.622Z,1.75
2023-04-04T01:14:19.267Z,1.73
2023-04-04T01:17:22.623Z,1.66
2023-04-04T01:20:27.464Z,1.72
2023-04-04T01:23:37.487Z,1.84
2023-04-04T01:26:41.877Z,1.71
2023-04-04T01:29:44.543Z,1.65
2023-04-04T01:32:54.082Z,1.74
2023-04-04T01:36:04.507Z,1.65
2023-04-04T01:39:16.259Z,1.62
2023-04-04T01:42:21.255Z,1.52
2023-04-04T01:45:24.852Z,1.53
2023-04-04T01:48:27.753Z,1.59
2023-04-04T01:51:31.808Z,1.59
2023-04-04T01:54:35.996Z,1.51
2023-04-04T01:57:39.944Z,1.64
2023-04-04T02:00:42.844Z,1.69
2023-04-04T02:03:45.510Z,1.59
2023-04-04T02:06:48.822Z,1.48
2023-04-04T02:09:51.525Z,1.41
2023-04-04T02:12:55.479Z,1.49
2023-04-04T02:15:58.230Z,1.45
2023-04-04T02:19:01.143Z,1.31
2023-04-04T02:22:03.750Z,1.48
2023-04-04T02:25:06.912Z,1.52
2023-04-04T02:28:11.438Z,1.60
2023-04-04T02:31:14.020Z,1.57
2023-04-04T02:34:16.703Z,1.58
2023-04-04T02:37:19.389Z,1.61
2023-04-04T02:40:21.989Z,1.60
2023-04-04T02:43:25.946Z,1.57
2023-04-04T02:46:28.594Z,1.38
2023-04-04T02:49:31.712Z,1.41
2023-04-04T02:52:34.301Z,1.44
2023-04-04T02:55:36.904Z,1.47
2023-04-04T02:58:41.663Z,1.39
2023-04-04T03:01:45.953Z,1.30
2023-04-04T03:04:48.570Z,1.37
2023-04-04T03:07:56.118Z,1.37
2023-04-04T03:10:58.873Z,1.45
2023-04-04T03:14:02.987Z,1.51
2023-04-04T03:17:06.274Z,1.57
2023-04-04T03:20:09.552Z,1.38
2023-04-04T03:23:12.159Z,1.40
2023-04-04T03:26:15.193Z,1.36
2023-04-04T03:29:19.158Z,1.45
2023-04-04T03:32:21.732Z,1.31
2023-04-04T03:35:24.341Z,1.38
2023-04-04T03:38:27.277Z,1.42
2023-04-04T03:41:29.841Z,1.45
2023-04-04T03:44:33.771Z,1.38
2023-04-04T03:47:36.392Z,1.32
2023-04-04T03:50:39.184Z,1.34
2023-04-04T03:53:41.880Z,1.39
2023-04-04T03:56:44.782Z,1.37
2023-04-04T03:59:48.701Z,1.43
2023-04-04T04:02:51.437Z,1.31
2023-04-04T04:05:55.250Z,1.31
2023-04-04T04:08:58.319Z,1.23
2023-04-04T04:12:01.482Z,1.37
2023-04-04T04:15:05.999Z,1.28
2023-04-04T04:18:08.575Z,1.19
2023-04-04T04:21:11.158Z,1.25
2023-04-04T04:24:13.759Z,1.23
2023-04-04T04:27:16.458Z,1.17
2023-04-04T04:30:20.398Z,1.25
2023-04-04T04:33:30.317Z,1.23
2023-04-04T04:36:33.166Z,1.27
2023-04-04T04:39:36.363Z,1.40
2023-04-04T04:42:44.858Z,1.48
2023-04-04T04:45:48.840Z,1.43
2023-04-04T04:48:51.760Z,1.45
2023-04-04T04:51:54.646Z,1.32
2023-04-04T04:54:57.311Z,1.36
2023-04-04T04:57:59.901Z,1.47
2023-04-04T05:01:03.933Z,1.44
2023-04-04T05:04:06.552Z,1.43
2023-04-04T05:07:09.153Z,1.32
2023-04-04T05:10:12.119Z,1.48
2023-04-04T05:13:14.971Z,1.44
2023-04-04T05:16:20.484Z,1.54
2023-04-04T05:19:23.235Z,1.55
2023-04-04T05:22:26.209Z,1.50
2023-04-04T05:25:28.955Z,1.59
2023-04-04T05:28:31.694Z,1.38
2023-04-04T05:31:35.664Z,1.44
2023-04-04T05:34:38.264Z,1.50
2023-04-04T05:37:41.316Z,1.60
2023-04-04T05:40:45.318Z,1.60
2023-04-04T05:43:47.939Z,1.44
2023-04-04T05:46:51.905Z,1.41
2023-04-04T05:49:54.477Z,1.55
2023-04-04T05:52:57.307Z,1.69
2023-04-04T05:56:00.866Z,1.67
2023-04-04T05:59:03.508Z,1.81
2023-04-04T06:02:08.205Z,1.85
2023-04-04T06:05:11.094Z,1.83
2023-04-04T06:08:13.687Z,1.89
2023-04-04T06:11:16.278Z,1.89
2023-04-04T06:14:18.839Z,2.04
2023-04-04T06:17:22.950Z,2.20
2023-04-04T06:20:25.681Z,2.13
2023-04-04T06:23:28.264Z,2.17
2023-04-04T06:26:30.845Z,2.29
2023-04-04T06:29:34.154Z,2.47
2023-04-04T06:32:38.633Z,2.58
2023-04-04T06:35:41.302Z,2.65
2023-04-04T06:38:43.936Z,2.80
2023-04-04T06:41:47.913Z,3.00
2023-04-04T06:44:50.520Z,3.17
2023-04-04T06:47:54.593Z,3.23
2023-04-04T06:50:57.249Z,3.44
2023-04-04T06:54:01.134Z,3.58
2023-04-04T06:57:04.667Z,3.76
2023-04-04T07:00:09.171Z,3.91
2023-04-04T07:03:13.229Z,4.16
2023-04-04T07:06:16.060Z,4.19
2023-04-04T07:09:28.206Z,4.30
2023-04-04T07:12:33.114Z,4.45
2023-04-04T07:15:35.689Z,4.58
2023-04-04T07:18:39.633Z,4.80
2023-04-04T07:21:42.192Z,4.69
2023-04-04T07:24:44.985Z,4.72
2023-04-04T07:27:47.932Z,4.91
2023-04-04T07:30:50.530Z,4.83
2023-04-04T07:33:54.755Z,4.94
2023-04-04T07:36:57.345Z,4.79
2023-04-04T07:39:59.966Z,4.61
2023-04-04T07:43:02.563Z,4.76
2023-04-04T07:46:05.412Z,4.90
2023-04-04T07:49:09.466Z,5.26
2023-04-04T07:52:12.081Z,5.54
2023-04-04T07:55:16.281Z,5.72
2023-04-04T07:58:19.478Z,5.73
2023-04-04T08:01:22.055Z,5.94
2023-04-04T08:04:26.170Z,5.59
2023-04-04T08:07:30.394Z,5.61
2023-04-04T08:10:33.108Z,5.75
2023-04-04T08:13:35.965Z,6.08
2023-04-04T08:16:38.540Z,6.23
2023-04-04T08:19:42.504Z,6.09
2023-04-04T08:22:45.095Z,6.50
2023-04-04T08:25:47.837Z,6.52
2023-04-04T08:28:51.269Z,6.01
2023-04-04T08:31:54.192Z,6.35
2023-04-04T08:34:58.193Z,6.42
2023-04-04T08:38:02.543Z,6.07
2023-04-04T08:41:05.239Z,5.81
2023-04-04T08:44:10.522Z,6.01
2023-04-04T08:47:14.518Z,6.40
2023-04-04T08:50:20.211Z,6.88
2023-04-04T08:53:22.819Z,7.06
2023-04-04T08:56:26.442Z,6.75
2023-04-04T08:59:29.215Z,7.30
2023-04-04T09:02:38.411Z,7.29
2023-04-04T09:05:44.587Z,7.56
2023-04-04T09:08:48.258Z,7.65
2023-04-04T09:11:52.745Z,7.32
2023-04-04T09:14:57.644Z,7.62
2023-04-04T09:18:00.263Z,7.82
2023-04-04T09:21:10.621Z,8.06
2023-04-04T09:24:13.217Z,8.14
2023-04-04T09:27:17.102Z,8.21
2023-04-04T09:30:20.123Z,8.60
2023-04-04T09:33:25.025Z,8.70
2023-04-04T09:36:29.551Z,8.41
2023-04-04T09:39:33.367Z,8.73
2023-04-04T09:42:36.598Z,9.65
2023-04-04T09:45:42.000Z,9.54
2023-04-04T09:48:50.538Z,9.53
2023-04-04T09:51:55.707Z,9.59
2023-04-04T09:54:59.118Z,9.94
2023-04-04T09:58:12.807Z,9.45
2023-04-04T10:01:15.768Z,9.83
2023-04-04T10:04:19.703Z,10.14
2023-04-04T10:07:23.841Z,10.19
2023-04-04T10:10:31.285Z,10.21
2023-04-04T10:13:36.107Z,9.51
2023-04-04T10:16:39.140Z,9.67
2023-04-04T10:19:42.002Z,9.78
2023-04-04T10:22:47.301Z,10.46
2023-04-04T10:25:50.337Z,10.65
2023-04-04T10:28:53.325Z,10.50
2023-04-04T10:32:03.443Z,10.81
2023-04-04T10:35:10.834Z,11.00
2023-04-04T10:38:15.332Z,11.40
2023-04-04T10:41:19.303Z,12.27
2023-04-04T10:44:25.990Z,13.00
2023-04-04T10:47:30.259Z,13.15
2023-04-04T10:50:34.716Z,13.58
2023-04-04T10:53:40.296Z,13.11
2023-04-04T10:56:43.586Z,13.93
2023-04-04T10:59:59.420Z,14.37
2023-04-04T11:03:03.031Z,13.89
2023-04-04T11:06:15.532Z,13.57
2023-04-04T11:09:51.718Z,12.83
2023-04-04T11:13:05.686Z,13.63
2023-04-04T11:16:15.768Z,14.86
2023-04-04T11:19:18.548Z,13.86
2023-04-04T11:22:23.663Z,13.35
2023-04-04T11:25:36.161Z,13.20
2023-04-04T11:28:46.548Z,13.15
2023-04-04T11:31:51.782Z,13.10
2023-04-04T11:34:54.421Z,13.60
2023-04-04T11:38:01.905Z,12.30
2023-04-04T11:41:07.859Z,12.04
2023-04-04T11:44:11.785Z,12.38
2023-04-04T11:47:14.479Z,11.87
2023-04-04T11:50:17.489Z,11.97
2023-04-04T11:53:20.575Z,12.23
2023-04-04T11:56:24.899Z,11.99
2023-04-04T11:59:27.724Z,12.50
2023-04-04T12:02:34.174Z,12.78
2023-04-04T12:05:37.261Z,12.96
2023-04-04T12:08:40.806Z,13.47
2023-04-04T12:11:46.119Z,13.86
2023-04-04T12:14:49.138Z,14.06
2023-04-04T12:17:52.194Z,13.91
2023-04-04T12:20:57.602Z,13.30
2023-04-04T12:24:00.243Z,12.92
2023-04-04T12:27:04.932Z,13.61
2023-04-04T12:30:15.451Z,14.01
2023-04-04T12:33:18.120Z,14.31
2023-04-04T12:36:21.203Z,14.94
2023-04-04T12:39:27.513Z,15.16
2023-04-04T12:42:32.508Z,15.77
2023-04-04T12:45:40.549Z,15.66
2023-04-04T12:48:44.650Z,16.19
2023-04-04T12:51:47.334Z,16.03
2023-04-04T12:55:04.785Z,15.49
2023-04-04T12:58:12.134Z,15.46
2023-04-04T13:01:16.593Z,15.32
2023-04-04T13:04:20.101Z,14.65
2023-04-04T13:07:26.376Z,13.78
2023-04-04T13:10:29.311Z,13.80
2023-04-04T13:13:38.555Z,13.67
2023-04-04T13:16:41.807Z,13.04
2023-04-04T13:19:44.502Z,12.19
2023-04-04T13:22:47.133Z,12.88
2023-04-04T13:25:49.986Z,13.19
2023-04-04T13:28:53.957Z,13.01
2023-04-04T13:31:57.072Z,13.14
2023-04-04T13:34:59.669Z,12.72
2023-04-04T13:38:02.340Z,13.20
2023-04-04T13:41:05.202Z,13.31
2023-04-04T13:44:09.174Z,13.38
2023-04-04T13:47:11.787Z,13.38
2023-04-04T13:50:14.371Z,12.65
2023-04-04T13:53:16.980Z,12.65
2023-04-04T13:56:20.023Z,12.76
2023-04-04T13:59:24.259Z,13.01
2023-04-04T14:02:26.966Z,12.77
2023-04-04T14:05:29.654Z,12.43
2023-04-04T14:08:33.855Z,12.47
2023-04-04T14:11:37.569Z,12.26
2023-04-04T14:14:41.595Z,12.13
2023-04-04T14:17:44.246Z,12.29
2023-04-04T14:20:47.495Z,11.97
2023-04-04T14:23:50.068Z,11.78
2023-04-04T14:26:52.640Z,12.14
2023-04-04T14:29:56.563Z,11.52
2023-04-04T14:32:59.158Z,11.83
2023-04-04T14:36:01.734Z,12.22
2023-04-04T14:39:04.478Z,12.26
2023-04-04T14:42:07.195Z,12.51
2023-04-04T14:45:12.434Z,12.01
2023-04-04T14:48:15.013Z,12.42
2023-04-04T14:51:19.523Z,12.36
2023-04-04T14:54:22.263Z,11.99
2023-04-04T14:57:25.011Z,12.40
2023-04-04T15:00:29.245Z,12.27
2023-04-04T15:03:32.407Z,12.28
2023-04-04T15:06:37.796Z,12.28
2023-04-04T15:09:40.434Z,11.83
2023-04-04T15:12:43.018Z,11.90
2023-04-04T15:15:47.237Z,11.62
2023-04-04T15:18:49.844Z,11.52
2023-04-04T15:21:53.201Z,11.07
2023-04-04T15:24:56.378Z,10.76
2023-04-04T15:28:00.749Z,10.90
2023-04-04T15:31:04.962Z,10.70
2023-04-04T15:34:07.763Z,10.35
2023-04-04T15:37:10.418Z,10.46
2023-04-04T15:40:13.351Z,10.52
2023-04-04T15:43:16.370Z,10.57
2023-04-04T15:46:20.347Z,10.31
2023-04-04T15:49:22.928Z,10.35
2023-04-04T15:52:26.419Z,10.32
2023-04-04T15:55:29.228Z,10.31
2023-04-04T15:58:31.788Z,10.39
2023-04-04T16:01:36.443Z,10.22
2023-04-04T16:04:39.096Z,10.08
2023-04-04T16:07:41.675Z,10.06
2023-04-04T16:10:44.646Z,9.75
2023-04-04T16:13:47.262Z,9.61
2023-04-04T16:16:51.239Z,9.47
2023-04-04T16:19:53.836Z,9.02
2023-04-04T16:22:56.396Z,9.32
2023-04-04T16:25:58.940Z,9.33
2023-04-04T16:29:03.103Z,9.28
2023-04-04T16:32:08.133Z,9.31
2023-04-04T16:35:10.986Z,9.31
2023-04-04T16:38:13.596Z,9.37
2023-04-04T16:41:17.357Z,9.45
2023-04-04T16:44:19.957Z,9.27
2023-04-04T16:47:25.119Z,9.23
2023-04-04T16:50:28.617Z,9.31
2023-04-04T16:53:31.229Z,9.09
2023-04-04T16:56:33.816Z,8.90
2023-04-04T16:59:37.678Z,9.10
2023-04-04T17:02:45.466Z,9.06
2023-04-04T17:05:48.858Z,9.17
2023-04-04T17:08:51.487Z,8.60
2023-04-04T17:11:54.082Z,8.92
2023-04-04T17:14:56.687Z,8.96
2023-04-04T17:18:01.370Z,8.96
2023-04-04T17:21:04.175Z,8.92
2023-04-04T17:24:06.996Z,8.92
2023-04-04T17:27:09.759Z,8.74
2023-04-04T17:30:13.670Z,8.68
2023-04-04T17:33:17.610Z,8.53
2023-04-04T17:36:20.252Z,8.54
2023-04-04T17:39:22.851Z,8.42
2023-04-04T17:42:25.591Z,8.36
2023-04-04T17:45:29.427Z,8.32
2023-04-04T17:48:36.577Z,8.19
2023-04-04T17:51:39.205Z,8.16
2023-04-04T17:54:42.193Z,8.13
2023-04-04T17:57:45.375Z,7.93
2023-04-04T18:00:48.240Z,7.83
2023-04-04T18:03:52.314Z,7.73
2023-04-04T18:06:55.063Z,7.69
2023-04-04T18:09:57.654Z,7.51
2023-04-04T18:13:01.239Z,7.51
2023-04-04T18:16:07.176Z,7.37
2023-04-04T18:19:11.586Z,7.34
2023-04-04T18:22:14.541Z,7.21
2023-04-04T18:25:18.577Z,7.14
2023-04-04T18:28:21.169Z,7.13
2023-04-04T18:31:24.025Z,7.05
2023-04-04T18:34:28.083Z,7.00
2023-04-04T18:37:30.848Z,6.83
2023-04-04T18:40:33.430Z,6.84
2023-04-04T18:43:37.151Z,6.72
2023-04-04T18:46:40.359Z,6.68
2023-04-04T18:49:44.343Z,6.65
2023-04-04T18:52:46.923Z,6.70
2023-04-04T18:55:49.786Z,6.55
2023-04-04T18:58:52.405Z,6.40
2023-04-04T19:01:56.326Z,6.40
2023-04-04T19:05:00.814Z,6.22
2023-04-04T19:08:04.273Z,6.10
2023-04-04T19:11:07.472Z,6.05
2023-04-04T19:14:10.115Z,6.01
2023-04-04T19:17:15.394Z,5.85
2023-04-04T19:20:19.705Z,5.84
2023-04-04T19:23:22.313Z,5.82
2023-04-04T19:26:24.941Z,5.79
2023-04-04T19:29:27.502Z,5.68
2023-04-04T19:32:31.516Z,5.76
2023-04-04T19:35:55.509Z,5.61
2023-04-04T19:38:58.120Z,5.53
2023-04-04T19:42:01.460Z,5.54
2023-04-04T19:45:13.900Z,5.54
2023-04-04T19:48:45.058Z,5.37
2023-04-04T19:51:53.438Z,5.22
2023-04-04T19:54:56.051Z,5.11
2023-04-04T19:57:58.619Z,5.15
2023-04-04T20:01:01.329Z,5.15
2023-04-04T20:04:08.603Z,5.06
2023-04-04T20:07:12.759Z,5.03
2023-04-04T20:10:37.438Z,4.94
2023-04-04T20:13:41.315Z,4.86
2023-04-04T20:16:44.077Z,4.85
2023-04-04T20:19:46.836Z,4.73
2023-04-04T20:22:52.432Z,4.81
2023-04-04T20:25:56.135Z,4.59
2023-04-04T20:28:58.722Z,4.52
2023-04-04T20:32:02.438Z,4.37
2023-04-04T20:35:07.543Z,4.36
2023-04-04T20:38:21.651Z,4.39
2023-04-04T20:41:26.268Z,4.25
2023-04-04T20:44:28.941Z,4.28
2023-04-04T20:47:43.075Z,4.31
2023-04-04T20:50:47.088Z,4.25
2023-04-04T20:53:52.175Z,4.10
2023-04-04T20:56:56.456Z,4.04
2023-04-04T20:59:59.058Z,3.96
2023-04-04T21:03:03.539Z,3.98
2023-04-04T21:06:14.733Z,3.88
2023-04-04T21:09:18.718Z,3.93
2023-04-04T21:12:22.891Z,3.96
2023-04-04T21:15:28.404Z,3.95
2023-04-04T21:18:32.724Z,3.85
2023-04-04T21:21:37.051Z,3.82
2023-04-04T21:24:41.270Z,3.79
2023-04-04T21:27:43.843Z,3.76
2023-04-04T21:30:47.397Z,3.62
2023-04-04T21:33:53.218Z,3.59
2023-04-04T21:36:57.110Z,3.51
2023-04-04T21:40:01.658Z,3.44
2023-04-04T21:43:04.242Z,3.54
2023-04-04T21:46:06.855Z,3.43
2023-04-04T21:49:09.963Z,3.43
2023-04-04T21:52:12.614Z,3.40
2023-04-04T21:55:16.570Z,3.36
2023-04-04T21:58:19.180Z,3.34
2023-04-04T22:01:22.136Z,3.23
2023-04-04T22:04:24.773Z,3.16
2023-04-04T22:07:27.606Z,3.17
2023-04-04T22:10:32.935Z,3.12
2023-04-04T22:13:42.765Z,3.21
2023-04-04T22:16:45.718Z,3.21
2023-04-04T22:19:58.731Z,3.03
2023-04-04T22:23:05.110Z,3.01
2023-04-04T22:26:10.884Z,3.04
2023-04-04T22:29:13.468Z,3.06
2023-04-04T22:32:16.138Z,3.06
2023-04-04T22:35:18.704Z,2.91
2023-04-04T22:38:21.487Z,2.92
2023-04-04T22:41:28.703Z,3.04
2023-04-04T22:44:31.520Z,2.75
2023-04-04T22:47:34.115Z,2.75
2023-04-04T22:50:36.734Z,2.78
2023-04-04T22:53:39.295Z,2.86
2023-04-04T22:56:43.341Z,2.69
2023-04-04T22:59:46.067Z,2.67
2023-04-04T23:02:51.229Z,2.70
2023-04-04T23:05:53.863Z,2.65
2023-04-04T23:08:56.420Z,2.72
2023-04-04T23:12:01.251Z,2.63
2023-04-04T23:15:04.681Z,2.66
2023-04-04T23:18:08.154Z,2.50
2023-04-04T23:21:10.846Z,2.58
2023-04-04T23:24:13.417Z,2.61
2023-04-04T23:27:17.405Z,2.52
2023-04-04T23:30:20.609Z,2.49
2023-04-04T23:33:23.195Z,2.39
2023-04-04T23:36:25.852Z,2.35
2023-04-04T23:39:28.606Z,2.20
2023-04-04T23:42:32.568Z,2.42
2023-04-04T23:45:38.148Z,2.37
2023-04-04T23:48:41.123Z,2.44
2023-04-04T23:51:44.764Z,2.33
2023-04-04T23:54:47.434Z,2.34
2023-04-04T23:57:51.350Z,2.21
